sensor_id;sensor_type;location;lat;lon;timestamp;pressure;altitude;pressure_sealevel;temperature;humidity
61318;BME280;47201;40.428;-8.436;2023-06-14T00:00:55;100727.06;;;18.18;100.00
61318;BME280;47201;40.428;-8.436;2023-06-14T00:02:56;100728.00;;;18.17;100.00
61318;BME280;47201;40.428;-8.436;2023-06-14T00:04:58;100732.44;;;18.17;100.00
61318;BME280;47201;40.428;-8.436;2023-06-14T00:06:59;100729.78;;;18.17;100.00
61318;BME280;47201;40.428;-8.436;2023-06-14T00:09:00;100722.66;;;18.19;100.00
61318;BME280;47201;40.428;-8.436;2023-06-14T00:11:01;100720.88;;;18.19;100.00
61318;BME280;47201;40.428;-8.436;2023-06-14T00:13:02;100725.25;;;18.20;100.00
61318;BME280;47201;40.428;-8.436;2023-06-14T00:15:02;100726.03;;;18.24;100.00
61318;BME280;47201;40.428;-8.436;2023-06-14T00:17:03;100727.91;;;18.20;100.00
61318;BME280;47201;40.428;-8.436;2023-06-14T00:19:04;100727.00;;;18.21;100.00
61318;BME280;47201;40.428;-8.436;2023-06-14T00:21:04;100733.13;;;18.22;100.00
61318;BME280;47201;40.428;-8.436;2023-06-14T00:23:05;100735.75;;;18.23;100.00
61318;BME280;47201;40.428;-8.436;2023-06-14T00:25:06;100727.81;;;18.23;100.00
61318;BME280;47201;40.428;-8.436;2023-06-14T00:27:06;100724.22;;;18.24;100.00
61318;BME280;47201;40.428;-8.436;2023-06-14T00:29:07;100728.59;;;18.26;100.00
61318;BME280;47201;40.428;-8.436;2023-06-14T00:31:08;100724.22;;;18.24;100.00
61318;BME280;47201;40.428;-8.436;2023-06-14T00:33:08;100726.03;;;18.24;100.00
61318;BME280;47201;40.428;-8.436;2023-06-14T00:35:09;100723.38;;;18.24;100.00
61318;BME280;47201;40.428;-8.436;2023-06-14T00:37:10;100719.00;;;18.23;100.00
61318;BME280;47201;40.428;-8.436;2023-06-14T00:39:11;100713.69;;;18.23;100.00
61318;BME280;47201;40.428;-8.436;2023-06-14T00:41:12;100719.91;;;18.22;100.00
61318;BME280;47201;40.428;-8.436;2023-06-14T00:43:12;100718.09;;;18.24;100.00
61318;BME280;47201;40.428;-8.436;2023-06-14T00:45:13;100714.59;;;18.23;100.00
61318;BME280;47201;40.428;-8.436;2023-06-14T00:47:14;100711.00;;;18.24;100.00
61318;BME280;47201;40.428;-8.436;2023-06-14T00:49:15;100714.47;;;18.27;100.00
61318;BME280;47201;40.428;-8.436;2023-06-14T00:51:17;100710.22;;;18.22;100.00
61318;BME280;47201;40.428;-8.436;2023-06-14T00:53:17;100715.44;;;18.24;100.00
61318;BME280;47201;40.428;-8.436;2023-06-14T00:55:19;100712.78;;;18.24;100.00
61318;BME280;47201;40.428;-8.436;2023-06-14T00:57:19;100717.22;;;18.23;100.00
61318;BME280;47201;40.428;-8.436;2023-06-14T00:59:21;100711.00;;;18.24;100.00
61318;BME280;47201;40.428;-8.436;2023-06-14T01:01:21;100711.81;;;18.27;100.00
61318;BME280;47201;40.428;-8.436;2023-06-14T01:03:23;100707.50;;;18.24;100.00
61318;BME280;47201;40.428;-8.436;2023-06-14T01:05:23;100710.97;;;18.26;100.00
61318;BME280;47201;40.428;-8.436;2023-06-14T01:07:31;100708.31;;;18.26;100.00
61318;BME280;47201;40.428;-8.436;2023-06-14T01:09:37;100709.22;;;18.25;100.00
61318;BME280;47201;40.428;-8.436;2023-06-14T01:11:45;100705.69;;;18.26;100.00
61318;BME280;47201;40.428;-8.436;2023-06-14T01:13:48;100700.41;;;18.24;100.00
61318;BME280;47201;40.428;-8.436;2023-06-14T01:15:49;100704.00;;;18.23;100.00
61318;BME280;47201;40.428;-8.436;2023-06-14T01:17:50;100711.94;;;18.23;100.00
61318;BME280;47201;40.428;-8.436;2023-06-14T01:19:51;100707.50;;;18.24;100.00
61318;BME280;47201;40.428;-8.436;2023-06-14T01:21:57;100709.22;;;18.25;100.00
61318;BME280;47201;40.428;-8.436;2023-06-14T01:24:00;100710.16;;;18.24;100.00
61318;BME280;47201;40.428;-8.436;2023-06-14T01:26:03;100703.94;;;18.25;100.00
61318;BME280;47201;40.428;-8.436;2023-06-14T01:28:07;100708.31;;;18.26;100.00
61318;BME280;47201;40.428;-8.436;2023-06-14T01:30:10;100700.41;;;18.24;100.00
61318;BME280;47201;40.428;-8.436;2023-06-14T01:32:13;100699.56;;;18.24;100.00
61318;BME280;47201;40.428;-8.436;2023-06-14T01:34:14;100699.72;;;18.19;100.00
61318;BME280;47201;40.428;-8.436;2023-06-14T01:36:14;100698.81;;;18.20;100.00
61318;BME280;47201;40.428;-8.436;2023-06-14T01:38:15;100701.38;;;18.22;100.00
61318;BME280;47201;40.428;-8.436;2023-06-14T01:40:17;100703.19;;;18.21;100.00
61318;BME280;47201;40.428;-8.436;2023-06-14T01:42:19;100700.59;;;18.20;100.00
61318;BME280;47201;40.428;-8.436;2023-06-14T01:44:20;100696.25;;;18.17;100.00
61318;BME280;47201;40.428;-8.436;2023-06-14T01:46:21;100705.13;;;18.16;100.00
61318;BME280;47201;40.428;-8.436;2023-06-14T01:48:22;100694.41;;;18.19;100.00
61318;BME280;47201;40.428;-8.436;2023-06-14T01:50:22;100695.34;;;18.18;100.00
61318;BME280;47201;40.428;-8.436;2023-06-14T01:52:26;100698.03;;;18.17;100.00
61318;BME280;47201;40.428;-8.436;2023-06-14T01:54:26;100700.75;;;18.15;100.00
61318;BME280;47201;40.428;-8.436;2023-06-14T01:56:27;100701.59;;;18.16;100.00
61318;BME280;47201;40.428;-8.436;2023-06-14T01:58:28;100699.91;;;18.13;100.00
61318;BME280;47201;40.428;-8.436;2023-06-14T02:00:29;100706.13;;;18.12;100.00
61318;BME280;47201;40.428;-8.436;2023-06-14T02:02:30;100705.31;;;18.10;100.00
61318;BME280;47201;40.428;-8.436;2023-06-14T02:04:30;100706.03;;;18.15;100.00
61318;BME280;47201;40.428;-8.436;2023-06-14T02:06:31;100700.84;;;18.12;100.00
61318;BME280;47201;40.428;-8.436;2023-06-14T02:08:31;100706.13;;;18.12;100.00
61318;BME280;47201;40.428;-8.436;2023-06-14T02:10:34;100702.63;;;18.12;100.00
61318;BME280;47201;40.428;-8.436;2023-06-14T02:12:35;100702.66;;;18.10;100.00
61318;BME280;47201;40.428;-8.436;2023-06-14T02:14:35;100707.94;;;18.10;100.00
61318;BME280;47201;40.428;-8.436;2023-06-14T02:16:36;100703.59;;;18.09;100.00
61318;BME280;47201;40.428;-8.436;2023-06-14T02:18:36;100700.13;;;18.07;100.00
61318;BME280;47201;40.428;-8.436;2023-06-14T02:20:37;100698.34;;;18.07;100.00
61318;BME280;47201;40.428;-8.436;2023-06-14T02:22:37;100699.22;;;18.08;100.00
61318;BME280;47201;40.428;-8.436;2023-06-14T02:24:41;100702.66;;;18.10;100.00
61318;BME280;47201;40.428;-8.436;2023-06-14T02:26:42;100701.03;;;18.06;100.00
61318;BME280;47201;40.428;-8.436;2023-06-14T02:28:42;100701.91;;;18.06;100.00
61318;BME280;47201;40.428;-8.436;2023-06-14T02:30:43;100702.88;;;18.04;100.00
61318;BME280;47201;40.428;-8.436;2023-06-14T02:32:43;100699.31;;;18.05;100.00
61318;BME280;47201;40.428;-8.436;2023-06-14T02:34:46;100699.22;;;18.08;100.00
61318;BME280;47201;40.428;-8.436;2023-06-14T02:36:50;100697.44;;;18.08;100.00
61318;BME280;47201;40.428;-8.436;2023-06-14T02:38:54;100700.97;;;18.09;100.00
61318;BME280;47201;40.428;-8.436;2023-06-14T02:40:54;100696.50;;;18.10;100.00
61318;BME280;47201;40.428;-8.436;2023-06-14T02:42:55;100695.75;;;18.06;100.00
61318;BME280;47201;40.428;-8.436;2023-06-14T02:44:55;100701.88;;;18.08;100.00
61318;BME280;47201;40.428;-8.436;2023-06-14T02:46:56;100698.25;;;18.11;100.00
61318;BME280;47201;40.428;-8.436;2023-06-14T02:48:56;100697.38;;;18.10;100.00
61318;BME280;47201;40.428;-8.436;2023-06-14T02:50:57;100694.84;;;18.07;100.00
61318;BME280;47201;40.428;-8.436;2023-06-14T02:52:58;100694.91;;;18.05;100.00
61318;BME280;47201;40.428;-8.436;2023-06-14T02:54:58;100695.75;;;18.06;100.00
61318;BME280;47201;40.428;-8.436;2023-06-14T02:57:00;100698.41;;;18.06;100.00
61318;BME280;47201;40.428;-8.436;2023-06-14T02:59:01;100694.13;;;18.02;100.00
61318;BME280;47201;40.428;-8.436;2023-06-14T03:01:01;100692.41;;;18.01;100.00
61318;BME280;47201;40.428;-8.436;2023-06-14T03:03:04;100694.13;;;18.02;100.00
61318;BME280;47201;40.428;-8.436;2023-06-14T03:05:12;100693.09;;;18.06;100.00
61318;BME280;47201;40.428;-8.436;2023-06-14T03:07:13;100688.72;;;18.05;100.00
61318;BME280;47201;40.428;-8.436;2023-06-14T03:09:25;100687.81;;;18.06;100.00
61318;BME280;47201;40.428;-8.436;2023-06-14T03:11:28;100688.63;;;18.08;100.00
61318;BME280;47201;40.428;-8.436;2023-06-14T03:13:32;100687.75;;;18.07;100.00
61318;BME280;47201;40.428;-8.436;2023-06-14T03:15:36;100693.94;;;18.08;100.00
61318;BME280;47201;40.428;-8.436;2023-06-14T03:17:36;100688.63;;;18.08;100.00
61318;BME280;47201;40.428;-8.436;2023-06-14T03:19:40;100693.94;;;18.08;100.00
61318;BME280;47201;40.428;-8.436;2023-06-14T03:21:41;100690.41;;;18.07;100.00
61318;BME280;47201;40.428;-8.436;2023-06-14T03:23:45;100688.66;;;18.06;100.00
61318;BME280;47201;40.428;-8.436;2023-06-14T03:25:46;100682.53;;;18.06;100.00
61318;BME280;47201;40.428;-8.436;2023-06-14T03:27:47;100685.16;;;18.06;100.00
61318;BME280;47201;40.428;-8.436;2023-06-14T03:29:48;100679.88;;;18.06;100.00
61318;BME280;47201;40.428;-8.436;2023-06-14T03:32:01;100685.25;;;18.03;100.00
61318;BME280;47201;40.428;-8.436;2023-06-14T03:34:11;100684.34;;;18.04;100.00
61318;BME280;47201;40.428;-8.436;2023-06-14T03:36:12;100685.22;;;18.04;100.00
61318;BME280;47201;40.428;-8.436;2023-06-14T03:38:14;100690.56;;;18.03;100.00
61318;BME280;47201;40.428;-8.436;2023-06-14T03:40:15;100685.31;;;18.01;100.00
61318;BME280;47201;40.428;-8.436;2023-06-14T03:42:19;100684.50;;;17.99;100.00
61318;BME280;47201;40.428;-8.436;2023-06-14T03:44:21;100681.00;;;17.99;100.00
61318;BME280;47201;40.428;-8.436;2023-06-14T03:46:22;100687.19;;;17.98;100.00
61318;BME280;47201;40.428;-8.436;2023-06-14T03:48:22;100677.50;;;17.98;100.00
61318;BME280;47201;40.428;-8.436;2023-06-14T03:50:23;100690.59;;;18.01;100.00
61318;BME280;47201;40.428;-8.436;2023-06-14T03:52:24;100680.91;;;18.02;100.00
61318;BME280;47201;40.428;-8.436;2023-06-14T03:54:25;100677.44;;;18.00;100.00
61318;BME280;47201;40.428;-8.436;2023-06-14T03:56:28;100681.91;;;17.98;100.00
61318;BME280;47201;40.428;-8.436;2023-06-14T03:58:29;100676.69;;;17.95;100.00
61318;BME280;47201;40.428;-8.436;2023-06-14T04:00:30;100677.53;;;17.97;100.00
61318;BME280;47201;40.428;-8.436;2023-06-14T04:02:32;100679.25;;;17.98;100.00
61318;BME280;47201;40.428;-8.436;2023-06-14T04:04:33;100684.50;;;17.99;100.00
61318;BME280;47201;40.428;-8.436;2023-06-14T04:06:36;100686.28;;;17.99;100.00
61318;BME280;47201;40.428;-8.436;2023-06-14T04:08:39;100684.56;;;17.98;100.00
61318;BME280;47201;40.428;-8.436;2023-06-14T04:10:40;100687.19;;;17.98;100.00
61318;BME280;47201;40.428;-8.436;2023-06-14T04:12:41;100677.50;;;17.98;100.00
61318;BME280;47201;40.428;-8.436;2023-06-14T04:14:43;100683.66;;;17.99;100.00
61318;BME280;47201;40.428;-8.436;2023-06-14T04:16:45;100676.63;;;17.98;100.00
61318;BME280;47201;40.428;-8.436;2023-06-14T04:18:47;100680.19;;;17.97;100.00
61318;BME280;47201;40.428;-8.436;2023-06-14T04:20:52;100667.84;;;17.97;100.00
61318;BME280;47201;40.428;-8.436;2023-06-14T04:22:53;100678.53;;;17.92;100.00
61318;BME280;47201;40.428;-8.436;2023-06-14T04:24:54;100678.53;;;17.92;100.00
61318;BME280;47201;40.428;-8.436;2023-06-14T04:26:58;100676.72;;;17.93;100.00
61318;BME280;47201;40.428;-8.436;2023-06-14T04:28:59;100677.59;;;17.95;100.00
61318;BME280;47201;40.428;-8.436;2023-06-14T04:31:04;100675.88;;;17.92;100.00
61318;BME280;47201;40.428;-8.436;2023-06-14T04:33:06;100682.88;;;17.95;100.00
61318;BME280;47201;40.428;-8.436;2023-06-14T04:35:07;100675.81;;;17.96;100.00
61318;BME280;47201;40.428;-8.436;2023-06-14T04:37:10;100669.59;;;17.97;100.00
61318;BME280;47201;40.428;-8.436;2023-06-14T04:39:15;100667.88;;;17.96;100.00
61318;BME280;47201;40.428;-8.436;2023-06-14T04:41:18;100667.00;;;17.95;100.00
61318;BME280;47201;40.428;-8.436;2023-06-14T04:43:19;100665.25;;;17.94;100.00
61318;BME280;47201;40.428;-8.436;2023-06-14T04:45:25;100668.91;;;17.90;100.00
61318;BME280;47201;40.428;-8.436;2023-06-14T04:47:32;100671.56;;;17.90;100.00
61318;BME280;47201;40.428;-8.436;2023-06-14T04:49:32;100674.25;;;17.88;100.00
61318;BME280;47201;40.428;-8.436;2023-06-14T04:51:34;100670.69;;;17.89;100.00
61318;BME280;47201;40.428;-8.436;2023-06-14T04:53:35;100674.16;;;17.91;100.00
61318;BME280;47201;40.428;-8.436;2023-06-14T04:55:36;100683.91;;;17.89;100.00
61318;BME280;47201;40.428;-8.436;2023-06-14T04:57:38;100681.19;;;17.91;100.00
61318;BME280;47201;40.428;-8.436;2023-06-14T04:59:39;100684.72;;;17.91;100.00
61318;BME280;47201;40.428;-8.436;2023-06-14T05:01:40;100686.41;;;17.94;100.00
61318;BME280;47201;40.428;-8.436;2023-06-14T05:03:41;100682.91;;;17.94;100.00
61318;BME280;47201;40.428;-8.436;2023-06-14T05:05:42;100692.53;;;17.95;100.00
61318;BME280;47201;40.428;-8.436;2023-06-14T05:07:42;100689.19;;;17.89;100.00
61318;BME280;47201;40.428;-8.436;2023-06-14T05:09:43;100690.06;;;17.90;100.00
61318;BME280;47201;40.428;-8.436;2023-06-14T05:11:45;100689.19;;;17.89;100.00
61318;BME280;47201;40.428;-8.436;2023-06-14T05:13:46;100690.97;;;17.89;100.00
61318;BME280;47201;40.428;-8.436;2023-06-14T05:15:47;100689.19;;;17.89;100.00
61318;BME280;47201;40.428;-8.436;2023-06-14T05:17:49;100690.09;;;17.88;100.00
61318;BME280;47201;40.428;-8.436;2023-06-14T05:19:54;100685.72;;;17.87;100.00
61318;BME280;47201;40.428;-8.436;2023-06-14T05:21:56;100686.56;;;17.89;100.00
61318;BME280;47201;40.428;-8.436;2023-06-14T05:23:56;100693.63;;;17.89;100.00
61318;BME280;47201;40.428;-8.436;2023-06-14T05:25:57;100690.09;;;17.88;100.00
61318;BME280;47201;40.428;-8.436;2023-06-14T05:27:57;100696.28;;;17.89;100.00
61318;BME280;47201;40.428;-8.436;2023-06-14T05:29:58;100701.50;;;17.90;100.00
61318;BME280;47201;40.428;-8.436;2023-06-14T05:31:59;100701.41;;;17.94;100.00
61318;BME280;47201;40.428;-8.436;2023-06-14T05:34:00;100704.06;;;17.94;100.00
61318;BME280;47201;40.428;-8.436;2023-06-14T05:36:00;100705.78;;;17.96;100.00
61318;BME280;47201;40.428;-8.436;2023-06-14T05:38:01;100705.72;;;17.98;100.00
61318;BME280;47201;40.428;-8.436;2023-06-14T05:40:02;100709.19;;;18.00;100.00
61318;BME280;47201;40.428;-8.436;2023-06-14T05:42:05;100709.13;;;18.01;100.00
61318;BME280;47201;40.428;-8.436;2023-06-14T05:44:06;100710.91;;;18.01;100.00
61318;BME280;47201;40.428;-8.436;2023-06-14T05:46:07;100713.59;;;17.99;100.00
61318;BME280;47201;40.428;-8.436;2023-06-14T05:48:08;100714.47;;;18.00;100.00
61318;BME280;47201;40.428;-8.436;2023-06-14T05:50:09;100721.28;;;18.07;100.00
61318;BME280;47201;40.428;-8.436;2023-06-14T05:52:10;100718.66;;;18.07;100.00
61318;BME280;47201;40.428;-8.436;2023-06-14T05:54:11;100722.28;;;18.03;100.00
61318;BME280;47201;40.428;-8.436;2023-06-14T05:56:12;100719.63;;;18.04;100.00
61318;BME280;47201;40.428;-8.436;2023-06-14T05:58:13;100723.13;;;18.05;100.00
61318;BME280;47201;40.428;-8.436;2023-06-14T06:00:13;100717.72;;;18.08;100.00
61318;BME280;47201;40.428;-8.436;2023-06-14T06:02:16;100725.66;;;18.08;100.00
61318;BME280;47201;40.428;-8.436;2023-06-14T06:04:17;100724.84;;;18.06;100.00
61318;BME280;47201;40.428;-8.436;2023-06-14T06:06:17;100718.72;;;18.04;100.00
61318;BME280;47201;40.428;-8.436;2023-06-14T06:08:18;100716.91;;;18.06;100.00
61318;BME280;47201;40.428;-8.436;2023-06-14T06:10:18;100713.22;;;18.10;100.00
61318;BME280;47201;40.428;-8.436;2023-06-14T06:12:19;100723.66;;;18.16;100.00
61318;BME280;47201;40.428;-8.436;2023-06-14T06:14:19;100719.06;;;18.21;100.00
61318;BME280;47201;40.428;-8.436;2023-06-14T06:16:20;100715.50;;;18.22;100.00
61318;BME280;47201;40.428;-8.436;2023-06-14T06:18:20;100720.81;;;18.21;100.00
61318;BME280;47201;40.428;-8.436;2023-06-14T06:20:21;100718.84;;;18.28;100.00
61318;BME280;47201;40.428;-8.436;2023-06-14T06:22:27;100720.94;;;18.18;100.00
61318;BME280;47201;40.428;-8.436;2023-06-14T06:24:28;100718.72;;;18.05;100.00
61318;BME280;47201;40.428;-8.436;2023-06-14T06:26:28;100721.63;;;17.96;100.00
61318;BME280;47201;40.428;-8.436;2023-06-14T06:28:29;100728.91;;;17.88;100.00
61318;BME280;47201;40.428;-8.436;2023-06-14T06:30:29;100727.47;;;17.77;100.00
61318;BME280;47201;40.428;-8.436;2023-06-14T06:32:30;100734.75;;;17.69;100.00
61318;BME280;47201;40.428;-8.436;2023-06-14T06:34:30;100734.19;;;17.59;100.00
61318;BME280;47201;40.428;-8.436;2023-06-14T06:36:31;100735.09;;;17.58;100.00
61318;BME280;47201;40.428;-8.436;2023-06-14T06:38:31;100737.75;;;17.58;100.00
61318;BME280;47201;40.428;-8.436;2023-06-14T06:40:32;100732.56;;;17.55;100.00
61318;BME280;47201;40.428;-8.436;2023-06-14T06:42:32;100731.88;;;17.49;100.00
61318;BME280;47201;40.428;-8.436;2023-06-14T06:44:36;100730.25;;;17.43;100.00
61318;BME280;47201;40.428;-8.436;2023-06-14T06:46:38;100733.78;;;17.43;100.00
61318;BME280;47201;40.428;-8.436;2023-06-14T06:48:43;100739.03;;;17.45;100.00
61318;BME280;47201;40.428;-8.436;2023-06-14T06:50:43;100740.88;;;17.41;100.00
61318;BME280;47201;40.428;-8.436;2023-06-14T06:52:44;100738.16;;;17.44;100.00
61318;BME280;47201;40.428;-8.436;2023-06-14T06:54:45;100754.06;;;17.43;100.00
61318;BME280;47201;40.428;-8.436;2023-06-14T06:56:46;100761.78;;;17.51;100.00
61318;BME280;47201;40.428;-8.436;2023-06-14T06:58:46;100757.06;;;17.60;100.00
61318;BME280;47201;40.428;-8.436;2023-06-14T07:00:47;100766.50;;;17.69;100.00
61318;BME280;47201;40.428;-8.436;2023-06-14T07:02:47;100770.72;;;17.75;100.00
61318;BME280;47201;40.428;-8.436;2023-06-14T07:04:48;100774.06;;;17.82;100.00
61318;BME280;47201;40.428;-8.436;2023-06-14T07:06:49;100779.31;;;17.83;100.00
61318;BME280;47201;40.428;-8.436;2023-06-14T07:08:49;100783.56;;;17.87;100.00
61318;BME280;47201;40.428;-8.436;2023-06-14T07:10:50;100779.81;;;17.95;100.00
61318;BME280;47201;40.428;-8.436;2023-06-14T07:12:50;100785.06;;;17.98;100.00
61318;BME280;47201;40.428;-8.436;2023-06-14T07:14:51;100787.50;;;18.04;100.00
61318;BME280;47201;40.428;-8.436;2023-06-14T07:16:51;100782.75;;;18.15;100.00
61318;BME280;47201;40.428;-8.436;2023-06-14T07:18:52;100790.50;;;18.21;100.00
61318;BME280;47201;40.428;-8.436;2023-06-14T07:20:53;100797.53;;;18.22;100.00
61318;BME280;47201;40.428;-8.436;2023-06-14T07:22:54;100796.91;;;18.14;100.00
61318;BME280;47201;40.428;-8.436;2023-06-14T07:24:55;100792.47;;;18.15;100.00
61318;BME280;47201;40.428;-8.436;2023-06-14T07:26:55;100792.22;;;18.22;100.00
61318;BME280;47201;40.428;-8.436;2023-06-14T07:28:56;100794.91;;;18.21;100.00
61318;BME280;47201;40.428;-8.436;2023-06-14T07:30:56;100799.25;;;18.23;100.00
61318;BME280;47201;40.428;-8.436;2023-06-14T07:32:57;100796.44;;;18.28;100.00
61318;BME280;47201;40.428;-8.436;2023-06-14T07:34:58;100792.69;;;18.35;100.00
61318;BME280;47201;40.428;-8.436;2023-06-14T07:36:58;100794.25;;;18.41;100.00
61318;BME280;47201;40.428;-8.436;2023-06-14T07:38:59;100785.31;;;18.45;100.00
61318;BME280;47201;40.428;-8.436;2023-06-14T07:40:59;100786.88;;;18.51;100.00
61318;BME280;47201;40.428;-8.436;2023-06-14T07:43:00;100792.75;;;18.61;100.00
61318;BME280;47201;40.428;-8.436;2023-06-14T07:45:03;100796.03;;;18.67;100.00
61318;BME280;47201;40.428;-8.436;2023-06-14T07:47:03;100794.28;;;18.68;100.00
61318;BME280;47201;40.428;-8.436;2023-06-14T07:49:04;100797.72;;;18.70;100.00
61318;BME280;47201;40.428;-8.436;2023-06-14T07:51:05;100796.69;;;18.74;100.00
61318;BME280;47201;40.428;-8.436;2023-06-14T07:53:05;100787.56;;;18.83;100.00
61318;BME280;47201;40.428;-8.436;2023-06-14T07:55:06;100792.59;;;18.92;100.00
61318;BME280;47201;40.428;-8.436;2023-06-14T07:57:07;100798.56;;;18.97;100.00
61318;BME280;47201;40.428;-8.436;2023-06-14T07:59:07;100802.09;;;18.98;100.00
61318;BME280;47201;40.428;-8.436;2023-06-14T08:01:08;100804.53;;;19.04;100.00
61318;BME280;47201;40.428;-8.436;2023-06-14T08:03:09;100807.34;;;18.99;100.00
61318;BME280;47201;40.428;-8.436;2023-06-14T08:05:10;100800.75;;;19.11;100.00
61318;BME280;47201;40.428;-8.436;2023-06-14T08:07:14;100801.09;;;19.26;100.00
61318;BME280;47201;40.428;-8.436;2023-06-14T08:09:14;100798.88;;;19.39;100.00
61318;BME280;47201;40.428;-8.436;2023-06-14T08:11:15;100804.69;;;19.48;100.00
61318;BME280;47201;40.428;-8.436;2023-06-14T08:13:16;100801.47;;;19.64;100.00
61318;BME280;47201;40.428;-8.436;2023-06-14T08:15:17;100803.88;;;19.70;100.00
61318;BME280;47201;40.428;-8.436;2023-06-14T08:17:19;100806.56;;;19.94;100.00
61318;BME280;47201;40.428;-8.436;2023-06-14T08:19:19;100816.09;;;19.98;100.00
61318;BME280;47201;40.428;-8.436;2023-06-14T08:21:20;100815.41;;;20.17;100.00
61318;BME280;47201;40.428;-8.436;2023-06-14T08:23:20;100810.09;;;20.17;100.00
61318;BME280;47201;40.428;-8.436;2023-06-14T08:25:22;100822.00;;;20.28;100.00
61318;BME280;47201;40.428;-8.436;2023-06-14T08:27:22;100823.41;;;20.37;100.00
61318;BME280;47201;40.428;-8.436;2023-06-14T08:29:23;100830.44;;;20.38;100.00
61318;BME280;47201;40.428;-8.436;2023-06-14T08:31:26;100827.63;;;20.43;100.00
61318;BME280;47201;40.428;-8.436;2023-06-14T08:33:27;100831.19;;;20.42;100.00
61318;BME280;47201;40.428;-8.436;2023-06-14T08:35:28;100829.53;;;20.39;100.00
61318;BME280;47201;40.428;-8.436;2023-06-14T08:37:29;100828.75;;;20.58;100.00
61318;BME280;47201;40.428;-8.436;2023-06-14T08:39:29;100828.97;;;20.75;100.00
61318;BME280;47201;40.428;-8.436;2023-06-14T08:41:30;100834.75;;;20.85;100.00
61318;BME280;47201;40.428;-8.436;2023-06-14T08:43:31;100837.06;;;20.93;100.00
61318;BME280;47201;40.428;-8.436;2023-06-14T08:45:32;100830.88;;;20.92;100.00
61318;BME280;47201;40.428;-8.436;2023-06-14T08:47:32;100837.66;;;21.00;100.00
61318;BME280;47201;40.428;-8.436;2023-06-14T08:49:37;100836.16;;;21.15;100.00
61318;BME280;47201;40.428;-8.436;2023-06-14T08:51:38;100828.56;;;21.26;100.00
61318;BME280;47201;40.428;-8.436;2023-06-14T08:53:40;100828.78;;;21.40;99.96
61318;BME280;47201;40.428;-8.436;2023-06-14T08:55:42;100817.41;;;21.58;96.86
61318;BME280;47201;40.428;-8.436;2023-06-14T08:57:44;100828.88;;;21.79;97.60
61318;BME280;47201;40.428;-8.436;2023-06-14T08:59:46;100831.66;;;21.76;95.92
61318;BME280;47201;40.428;-8.436;2023-06-14T09:01:47;100832.38;;;21.79;96.43
61318;BME280;47201;40.428;-8.436;2023-06-14T09:03:48;100834.41;;;21.93;94.44
61318;BME280;47201;40.428;-8.436;2023-06-14T09:05:48;100826.75;;;22.05;93.29
61318;BME280;47201;40.428;-8.436;2023-06-14T09:07:50;100829.47;;;22.41;93.17
61318;BME280;47201;40.428;-8.436;2023-06-14T09:10:04;100829.19;;;22.65;89.22
61318;BME280;47201;40.428;-8.436;2023-06-14T09:12:07;100832.72;;;22.83;89.25
61318;BME280;47201;40.428;-8.436;2023-06-14T09:14:10;100838.22;;;23.15;86.77
61318;BME280;47201;40.428;-8.436;2023-06-14T09:16:11;100842.19;;;23.06;85.12
61318;BME280;47201;40.428;-8.436;2023-06-14T09:18:11;100842.56;;;23.16;85.05
61318;BME280;47201;40.428;-8.436;2023-06-14T09:20:12;100840.56;;;22.86;86.15
61318;BME280;47201;40.428;-8.436;2023-06-14T09:22:18;100842.91;;;23.10;85.10
61318;BME280;47201;40.428;-8.436;2023-06-14T09:24:19;100843.06;;;23.07;84.14
61318;BME280;47201;40.428;-8.436;2023-06-14T09:26:20;100838.53;;;22.91;85.86
61318;BME280;47201;40.428;-8.436;2023-06-14T09:28:20;100847.00;;;23.00;86.09
61318;BME280;47201;40.428;-8.436;2023-06-14T09:30:45;100840.09;;;22.95;84.92
61318;BME280;47201;40.428;-8.436;2023-06-14T09:33:04;100839.41;;;23.27;83.02
61318;BME280;47201;40.428;-8.436;2023-06-14T09:35:25;100842.50;;;23.35;82.70
61318;BME280;47201;40.428;-8.436;2023-06-14T09:37:29;100830.66;;;23.41;84.20
61318;BME280;47201;40.428;-8.436;2023-06-14T09:39:30;100840.63;;;23.20;83.80
61318;BME280;47201;40.428;-8.436;2023-06-14T09:41:49;100842.00;;;22.93;85.46
61318;BME280;47201;40.428;-8.436;2023-06-14T09:44:08;100836.34;;;23.00;86.70
61318;BME280;47201;40.428;-8.436;2023-06-14T09:46:27;100841.44;;;23.22;85.76
61318;BME280;47201;40.428;-8.436;2023-06-14T09:48:29;100837.81;;;23.56;84.34
61318;BME280;47201;40.428;-8.436;2023-06-14T09:50:49;100839.75;;;23.86;83.10
61318;BME280;47201;40.428;-8.436;2023-06-14T09:52:51;100839.63;;;24.05;79.94
61318;BME280;47201;40.428;-8.436;2023-06-14T09:55:13;100848.97;;;24.61;77.39
61318;BME280;47201;40.428;-8.436;2023-06-14T09:57:22;100843.06;;;24.86;77.34
61318;BME280;47201;40.428;-8.436;2023-06-14T09:59:42;100848.88;;;25.38;74.08
61318;BME280;47201;40.428;-8.436;2023-06-14T10:01:43;100853.56;;;25.63;72.65
61318;BME280;47201;40.428;-8.436;2023-06-14T10:04:03;100856.53;;;25.73;71.94
61318;BME280;47201;40.428;-8.436;2023-06-14T10:06:04;100859.47;;;26.11;72.30
61318;BME280;47201;40.428;-8.436;2023-06-14T10:08:10;100854.03;;;26.40;71.32
61318;BME280;47201;40.428;-8.436;2023-06-14T10:10:10;100859.44;;;26.53;68.84
61318;BME280;47201;40.428;-8.436;2023-06-14T10:12:11;100854.63;;;25.75;71.10
61318;BME280;47201;40.428;-8.436;2023-06-14T10:14:30;100862.81;;;26.01;70.59
61318;BME280;47201;40.428;-8.436;2023-06-14T10:17:09;100856.53;;;25.87;71.42
61318;BME280;47201;40.428;-8.436;2023-06-14T10:19:29;100848.59;;;25.71;72.23
61318;BME280;47201;40.428;-8.436;2023-06-14T10:22:09;100854.16;;;25.83;71.17
61318;BME280;47201;40.428;-8.436;2023-06-14T10:24:20;100857.41;;;25.73;72.42